Time;durP1;ratioP1;P1;durP2;ratioP2;P2;SDS_P1;SDS_P2;PMS_P1;PMS_P2;Temp;Humidity;BMP_temperature;BMP_pressure;BME280_temperature;BME280_humidity;BME280_pressure;Samples;Min_cycle;Max_cycle;Signal;HPM_P1;HPM_P2
2021/12/10 00:01:19;;;;;;;110.00;93.95;;;21.30;50.60;;;;;;4774890;55;20998;-31
2021/12/10 00:06:32;;;;;;;106.82;87.80;;;21.30;50.60;;;;;;4747961;55;21078;-30
2021/12/10 00:11:38;;;;;;;104.82;87.93;;;21.30;50.40;;;;;;4843766;55;20990;-32
2021/12/10 00:16:41;;;;;;;108.45;89.93;;;21.30;50.30;;;;;;5037150;55;21039;-30
2021/12/10 00:21:43;;;;;;;105.78;90.28;;;21.30;50.20;;;;;;4943006;55;21052;-30
2021/12/10 00:26:44;;;;;;;98.35;81.80;;;21.20;50.20;;;;;;4777374;55;21058;-31
2021/12/10 00:31:50;;;;;;;105.10;89.82;;;21.20;50.20;;;;;;4845319;55;21026;-30
2021/12/10 00:36:54;;;;;;;98.82;82.07;;;21.20;50.10;;;;;;4849683;55;21543;-30
2021/12/10 00:41:57;;;;;;;96.37;79.62;;;21.20;50.20;;;;;;4877570;55;21005;-30
2021/12/10 00:46:58;;;;;;;95.50;81.78;;;21.20;49.90;;;;;;4747747;55;21022;-30
2021/12/10 00:52:00;;;;;;;95.78;82.37;;;21.20;50.60;;;;;;4748361;58;21022;-29
2021/12/10 00:57:01;;;;;;;93.22;79.65;;;21.20;50.00;;;;;;4856596;55;21475;-29
2021/12/10 01:02:04;;;;;;;92.40;77.32;;;21.20;49.80;;;;;;4817820;55;21021;-29
2021/12/10 01:07:09;;;;;;;92.75;79.22;;;21.20;49.90;;;;;;4825487;55;21034;-30
2021/12/10 01:12:20;;;;;;;96.35;79.10;;;21.20;49.80;;;;;;4811490;55;21017;-29
2021/12/10 01:28:08;;;;;;;89.85;75.47;;;21.20;49.60;;;;;;4746883;55;21038;-28
2021/12/10 01:33:13;;;;;;;86.40;73.15;;;21.10;49.50;;;;;;4845652;55;21072;-31
2021/12/10 01:38:16;;;;;;;86.45;73.57;;;21.10;49.60;;;;;;5031948;55;21057;-31
2021/12/10 01:43:23;;;;;;;85.85;73.75;;;21.10;49.40;;;;;;4780904;55;21512;-31
2021/12/10 01:48:32;;;;;;;82.30;67.37;;;21.10;49.40;;;;;;4747305;58;21516;-29
2021/12/10 01:53:36;;;;;;;83.22;70.22;;;21.10;49.30;;;;;;4822023;55;21057;-29
2021/12/10 01:58:38;;;;;;;82.05;71.32;;;21.10;49.20;;;;;;4897737;55;20993;-29
2021/12/10 02:03:40;;;;;;;80.57;67.40;;;21.10;49.30;;;;;;4819003;55;21025;-30
2021/12/10 02:08:42;;;;;;;81.93;70.32;;;21.10;49.20;;;;;;5182423;55;20997;-29
2021/12/10 02:13:44;;;;;;;75.53;63.33;;;21.10;49.10;;;;;;4799357;55;20989;-28
2021/12/10 02:18:45;;;;;;;76.72;65.15;;;21.10;49.10;;;;;;4747853;55;21005;-29
2021/12/10 02:23:56;;;;;;;74.47;63.30;;;21.10;49.00;;;;;;4964059;54;21069;-29
2021/12/10 02:28:58;;;;;;;76.57;63.80;;;21.10;49.00;;;;;;4771418;55;21511;-31
2021/12/10 02:34:01;;;;;;;76.50;64.32;;;21.10;48.90;;;;;;4958582;55;21128;-29
2021/12/10 02:39:02;;;;;;;75.55;62.70;;;21.00;48.90;;;;;;4748163;58;21535;-31
2021/12/10 02:44:04;;;;;;;69.55;59.38;;;21.10;48.90;;;;;;4846178;55;21070;-31
2021/12/10 02:49:07;;;;;;;72.20;60.63;;;21.00;48.90;;;;;;4788113;55;21081;-31
2021/12/10 02:54:11;;;;;;;72.05;63.63;;;21.10;48.80;;;;;;4798388;55;20994;-30
2021/12/10 02:59:12;;;;;;;68.57;58.15;;;21.00;48.70;;;;;;4936133;55;21546;-30
2021/12/10 03:04:13;;;;;;;69.43;58.20;;;21.00;48.80;;;;;;4780663;54;20998;-30
2021/12/10 03:09:17;;;;;;;65.15;56.72;;;21.00;48.80;;;;;;4864691;55;21532;-30
2021/12/10 03:14:21;;;;;;;66.75;56.33;;;21.00;48.70;;;;;;4769808;55;20998;-30
2021/12/10 03:19:22;;;;;;;66.50;57.25;;;21.00;48.50;;;;;;4960211;55;21049;-30
2021/12/10 03:24:26;;;;;;;62.15;53.90;;;21.00;48.70;;;;;;4758390;55;21013;-30
2021/12/10 03:29:27;;;;;;;63.83;56.20;;;21.00;48.60;;;;;;4748157;58;21145;-28
2021/12/10 03:34:28;;;;;;;67.72;55.45;;;21.00;48.60;;;;;;4781895;55;21009;-28
2021/12/10 03:39:30;;;;;;;62.88;53.45;;;21.00;48.50;;;;;;4832272;55;21036;-30
2021/12/10 03:44:31;;;;;;;60.15;52.05;;;21.00;48.60;;;;;;4940490;55;21018;-30
2021/12/10 03:49:32;;;;;;;63.15;52.47;;;21.00;48.40;;;;;;4972045;55;21006;-31
2021/12/10 03:54:34;;;;;;;65.32;56.05;;;21.00;48.40;;;;;;4748087;58;21033;-29
2021/12/10 03:59:36;;;;;;;63.47;53.78;;;21.00;48.40;;;;;;4816362;55;21018;-28
2021/12/10 04:04:44;;;;;;;61.35;53.35;;;21.00;48.30;;;;;;4747914;58;20978;-29
2021/12/10 04:09:46;;;;;;;60.20;51.72;;;21.00;48.40;;;;;;4747902;58;21009;-31
2021/12/10 04:14:49;;;;;;;62.38;53.87;;;21.00;48.30;;;;;;4767483;55;21073;-31
2021/12/10 04:19:50;;;;;;;57.00;49.95;;;21.00;48.30;;;;;;4748175;55;21058;-30
2021/12/10 04:24:52;;;;;;;61.20;52.72;;;21.00;48.30;;;;;;4748101;55;20994;-29
2021/12/10 04:29:56;;;;;;;57.42;47.62;;;21.00;48.20;;;;;;4773959;55;21064;-31
2021/12/10 04:34:58;;;;;;;59.38;51.75;;;20.90;48.20;;;;;;4814384;55;21499;-31
2021/12/10 04:40:02;;;;;;;56.05;47.88;;;20.90;48.20;;;;;;5118279;55;21015;-31
2021/12/10 04:45:06;;;;;;;57.55;50.10;;;21.00;48.20;;;;;;4748261;55;21460;-27
2021/12/10 04:50:09;;;;;;;55.42;47.80;;;20.90;48.10;;;;;;4863992;55;21062;-28
2021/12/10 04:55:13;;;;;;;55.67;47.13;;;20.90;48.10;;;;;;4908356;55;21001;-28
2021/12/10 05:00:25;;;;;;;54.75;47.45;;;20.90;48.10;;;;;;4867710;55;21002;-31
2021/12/10 05:05:28;;;;;;;54.63;47.20;;;20.90;48.10;;;;;;4747691;58;21602;-29
2021/12/10 05:10:29;;;;;;;52.90;47.10;;;20.90;48.20;;;;;;4903708;55;21064;-30
2021/12/10 05:15:33;;;;;;;52.92;44.53;;;20.90;48.20;;;;;;4749182;55;21063;-31
2021/12/10 05:20:37;;;;;;;49.55;43.08;;;20.90;48.10;;;;;;4874929;55;21052;-31
2021/12/10 05:25:38;;;;;;;53.38;46.25;;;20.90;48.10;;;;;;4966402;55;21146;-27
2021/12/10 05:30:40;;;;;;;51.65;44.90;;;20.90;48.10;;;;;;4941357;54;21050;-30
2021/12/10 05:35:41;;;;;;;50.12;44.55;;;20.90;48.10;;;;;;5185094;55;21520;-28
2021/12/10 05:40:42;;;;;;;50.55;44.40;;;20.80;48.20;;;;;;4747711;58;21514;-30
2021/12/10 05:45:45;;;;;;;51.20;44.05;;;20.90;48.20;;;;;;4747838;55;21382;-31
2021/12/10 05:50:47;;;;;;;49.97;43.15;;;20.90;48.30;;;;;;4784557;55;20978;-31
2021/12/10 05:55:49;;;;;;;48.00;41.90;;;20.80;48.40;;;;;;4766219;55;21010;-30
2021/12/10 06:00:55;;;;;;;45.72;40.08;;;20.90;48.30;;;;;;4878495;55;20982;-31
2021/12/10 06:05:56;;;;;;;49.58;44.05;;;20.90;48.50;;;;;;4747517;58;21009;-31
2021/12/10 06:10:59;;;;;;;47.45;42.13;;;20.90;48.50;;;;;;4747870;55;21010;-31
2021/12/10 06:16:00;;;;;;;45.95;39.20;;;20.90;48.40;;;;;;4962634;55;21009;-32
2021/12/10 06:21:01;;;;;;;50.30;43.05;;;20.90;48.40;;;;;;4747899;58;21057;-31
2021/12/10 06:26:04;;;;;;;47.50;41.70;;;20.80;48.50;;;;;;4850912;55;21005;-31
2021/12/10 06:31:05;;;;;;;46.90;40.63;;;20.80;48.40;;;;;;4747149;58;21595;-30
2021/12/10 06:36:07;;;;;;;46.67;40.55;;;20.80;48.40;;;;;;4840903;55;21006;-32
2021/12/10 06:41:09;;;;;;;44.67;39.78;;;20.90;48.50;;;;;;4747812;58;21539;-30
2021/12/10 06:46:11;;;;;;;47.67;42.45;;;20.80;48.40;;;;;;4920150;55;21026;-30
2021/12/10 06:51:18;;;;;;;46.08;40.60;;;20.80;48.40;;;;;;4782486;55;21002;-29
2021/12/10 06:56:22;;;;;;;45.95;40.05;;;20.80;48.30;;;;;;4812473;55;21619;-29
2021/12/10 07:01:27;;;;;;;48.35;41.78;;;20.80;48.30;;;;;;4747678;58;21611;-30
2021/12/10 07:06:29;;;;;;;45.85;40.85;;;20.80;48.20;;;;;;4747357;56;21044;-29
2021/12/10 07:11:30;;;;;;;42.50;37.35;;;20.80;48.40;;;;;;4811184;55;21009;-29
2021/12/10 07:16:31;;;;;;;46.17;40.97;;;20.80;48.20;;;;;;4809581;54;20993;-31
2021/12/10 07:21:33;;;;;;;47.50;42.20;;;20.80;48.30;;;;;;4772990;55;21013;-32
2021/12/10 07:26:35;;;;;;;46.60;40.05;;;20.80;48.20;;;;;;4867127;55;21483;-29
2021/12/10 07:31:37;;;;;;;44.80;39.42;;;20.80;48.20;;;;;;4817587;55;21045;-32
2021/12/10 07:36:39;;;;;;;47.58;42.33;;;20.80;48.30;;;;;;5057671;55;21543;-31
2021/12/10 07:41:43;;;;;;;48.22;40.65;;;20.80;48.30;;;;;;4747801;58;21010;-30
2021/12/10 07:46:44;;;;;;;47.62;41.42;;;20.80;48.10;;;;;;4812989;55;21094;-30
2021/12/10 07:51:49;;;;;;;47.17;41.45;;;20.80;48.10;;;;;;4747997;58;21013;-31
2021/12/10 07:56:51;;;;;;;44.40;38.42;;;20.80;48.00;;;;;;4826930;55;21507;-29
2021/12/10 08:01:52;;;;;;;115.25;89.50;;;20.80;48.10;;;;;;4917987;55;21005;-30
2021/12/10 08:06:53;;;;;;;178.32;135.88;;;20.80;45.80;;;;;;4779708;55;21097;-27
2021/12/10 08:11:54;;;;;;;140.88;111.40;;;20.60;43.50;;;;;;4853174;55;21487;-28
2021/12/10 08:16:55;;;;;;;133.75;107.95;;;20.60;45.40;;;;;;4818753;54;21508;-27
2021/12/10 08:21:56;;;;;;;135.37;107.20;;;20.80;45.80;;;;;;4772107;54;21057;-26
2021/12/10 08:26:57;;;;;;;129.93;103.82;;;20.90;46.00;;;;;;4745473;58;21025;-26
2021/12/10 08:31:58;;;;;;;121.35;98.32;;;21.10;46.00;;;;;;4778359;54;21038;-22
2021/12/10 08:36:58;;;;;;;113.82;95.28;;;21.20;46.30;;;;;;4877994;54;21105;-29
2021/12/10 08:42:00;;;;;;;120.40;97.70;;;21.40;46.70;;;;;;4768581;54;21704;-29
2021/12/10 08:47:04;;;;;;;115.30;95.03;;;21.50;47.00;;;;;;4746525;58;21133;-28
2021/12/10 08:52:08;;;;;;;126.62;105.37;;;21.60;46.90;;;;;;4770174;55;21080;-26
2021/12/10 08:57:10;;;;;;;120.85;100.35;;;21.60;46.90;;;;;;4854949;55;21520;-27
2021/12/10 09:02:13;;;;;;;119.62;98.18;;;21.70;47.10;;;;;;4809244;55;21010;-26
2021/12/10 09:07:17;;;;;;;117.97;100.03;;;21.80;47.20;;;;;;4746894;58;21009;-30
2021/12/10 09:12:25;;;;;;;117.45;95.78;;;21.80;47.20;;;;;;4797879;55;21041;-28
2021/12/10 09:17:28;;;;;;;118.47;99.93;;;21.90;47.20;;;;;;5024117;55;21540;-29
2021/12/10 09:22:29;;;;;;;118.90;99.55;;;21.90;47.30;;;;;;4747324;58;21560;-27
2021/12/10 09:27:31;;;;;;;119.57;95.70;;;22.00;47.30;;;;;;4803874;54;21071;-25
2021/12/10 09:32:32;;;;;;;116.05;96.68;;;22.10;47.40;;;;;;4828062;54;21092;-23
2021/12/10 09:37:35;;;;;;;121.22;98.85;;;22.10;47.40;;;;;;4775420;55;21042;-20
2021/12/10 09:42:37;;;;;;;114.30;95.28;;;22.20;47.60;;;;;;4832139;55;21013;-29
2021/12/10 09:47:38;;;;;;;116.18;96.75;;;22.20;47.70;;;;;;4744512;58;21114;-26
2021/12/10 09:52:40;;;;;;;118.55;98.05;;;22.30;47.90;;;;;;4768927;55;21108;-28
2021/12/10 09:57:53;;;;;;;118.85;97.62;;;22.30;47.90;;;;;;4746676;58;21037;-27
2021/12/10 10:02:55;;;;;;;122.43;99.80;;;22.30;47.90;;;;;;4823019;55;21531;-29
2021/12/10 10:08:00;;;;;;;133.30;108.65;;;22.40;48.00;;;;;;4766178;55;21085;-32
2021/12/10 10:13:06;;;;;;;136.48;114.85;;;22.30;47.90;;;;;;4746717;55;21069;-28
2021/12/10 10:18:09;;;;;;;154.07;126.50;;;22.30;47.80;;;;;;4834207;55;21010;-27
2021/12/10 10:23:11;;;;;;;153.32;123.60;;;22.40;47.70;;;;;;4870362;55;21040;-29
2021/12/10 10:28:14;;;;;;;146.20;121.35;;;22.50;47.90;;;;;;4864410;55;21104;-26
2021/12/10 10:33:16;;;;;;;146.00;122.55;;;22.50;48.00;;;;;;4831020;55;21487;-29
2021/12/10 10:38:17;;;;;;;151.20;124.32;;;22.50;48.10;;;;;;4776343;55;21460;-24
2021/12/10 10:43:19;;;;;;;151.32;123.87;;;22.60;48.20;;;;;;4747017;58;21029;-27
2021/12/10 10:48:20;;;;;;;152.93;125.25;;;22.70;48.20;;;;;;4746374;58;21013;-27
2021/12/10 10:53:27;;;;;;;152.57;124.75;;;22.70;48.20;;;;;;4791678;55;21020;-29
2021/12/10 10:58:33;;;;;;;148.80;122.23;;;22.70;48.30;;;;;;4747990;55;21548;-30
2021/12/10 11:03:42;;;;;;;147.52;122.35;;;22.70;48.40;;;;;;4818970;55;21222;-40
2021/12/10 11:08:47;;;;;;;146.85;117.95;;;22.90;48.70;;;;;;4740882;58;21586;-37
2021/12/10 11:13:59;;;;;;;147.82;119.82;;;22.80;48.70;;;;;;4838377;55;21018;-38
2021/12/10 11:19:12;;;;;;;153.23;124.12;;;22.90;48.90;;;;;;4811094;55;21014;-32
2021/12/10 11:24:51;;;;;;;153.00;127.25;;;22.90;49.00;;;;;;4747129;58;21096;-30
2021/12/10 11:31:02;;;;;;;151.43;121.97;;;22.90;49.00;;;;;;4901093;55;21074;-32
2021/12/10 11:36:26;;;;;;;149.45;121.75;;;22.90;49.00;;;;;;4747229;58;21416;-34
2021/12/10 11:41:30;;;;;;;149.00;122.22;;;23.00;49.60;;;;;;4749830;55;21504;-33
2021/12/10 11:46:51;;;;;;;154.02;125.00;;;23.00;49.40;;;;;;4806582;55;21488;-34
2021/12/10 11:52:25;;;;;;;152.98;126.40;;;23.10;49.50;;;;;;4872599;55;21550;-31
2021/12/10 11:57:31;;;;;;;160.55;128.68;;;23.00;49.40;;;;;;4767320;55;21535;-29
2021/12/10 12:02:37;;;;;;;155.65;126.57;;;23.10;49.60;;;;;;4747268;58;21009;-35
2021/12/10 12:07:43;;;;;;;158.63;128.27;;;23.10;49.60;;;;;;4877890;55;21483;-31
2021/12/10 12:13:54;;;;;;;153.82;125.20;;;23.10;49.80;;;;;;4800508;55;21082;-35
2021/12/10 12:19:00;;;;;;;155.60;126.38;;;23.10;49.50;;;;;;4747843;55;21463;-35
2021/12/10 12:29:39;;;;;;;161.73;131.68;;;23.00;49.10;;;;;;4747160;55;21151;-39
2021/12/10 12:34:40;;;;;;;160.48;128.02;;;23.00;49.00;;;;;;4973016;55;21566;-31
2021/12/10 12:40:04;;;;;;;156.73;128.65;;;22.90;48.80;;;;;;4747558;58;21069;-30
2021/12/10 12:45:13;;;;;;;165.00;135.05;;;23.00;48.70;;;;;;4931582;55;21010;-33
2021/12/10 12:50:28;;;;;;;162.15;132.55;;;23.00;49.10;;;;;;4787531;55;21041;-33
2021/12/10 12:55:53;;;;;;;161.23;133.10;;;23.00;48.50;;;;;;4747761;58;21065;-32
2021/12/10 13:01:59;;;;;;;163.75;132.18;;;23.10;48.70;;;;;;4824485;55;20986;-33
2021/12/10 13:07:17;;;;;;;170.87;136.37;;;23.10;48.80;;;;;;4747097;58;21049;-35
2021/12/10 13:13:10;;;;;;;156.70;128.02;;;23.10;48.90;;;;;;4762609;55;21026;-29
2021/12/10 13:18:12;;;;;;;162.35;133.12;;;23.10;49.10;;;;;;4956677;55;21520;-32
2021/12/10 13:23:17;;;;;;;161.40;129.70;;;23.10;49.10;;;;;;4762893;55;21480;-34
2021/12/10 13:28:18;;;;;;;156.77;130.87;;;23.20;49.30;;;;;;4828340;55;21109;-31
2021/12/10 13:33:29;;;;;;;162.85;131.60;;;23.20;49.30;;;;;;4895165;54;21025;-33
2021/12/10 13:38:33;;;;;;;153.30;125.38;;;23.20;49.50;;;;;;4808808;55;21014;-33
2021/12/10 13:43:36;;;;;;;157.70;130.82;;;23.20;49.60;;;;;;4793866;55;21515;-32
2021/12/10 13:48:51;;;;;;;159.70;131.45;;;23.20;49.60;;;;;;4836026;55;21038;-35
2021/12/10 13:54:06;;;;;;;160.27;130.02;;;23.20;49.70;;;;;;4836925;55;21475;-31
2021/12/10 13:59:08;;;;;;;153.25;127.87;;;23.20;49.90;;;;;;4801479;55;21057;-31
2021/12/10 14:04:22;;;;;;;158.07;133.07;;;23.30;49.90;;;;;;5075869;55;21036;-36
2021/12/10 14:09:43;;;;;;;156.57;130.05;;;23.30;50.00;;;;;;4747618;58;21018;-34
2021/12/10 14:14:51;;;;;;;156.57;130.70;;;23.30;50.10;;;;;;4810279;55;21551;-30
2021/12/10 14:19:53;;;;;;;154.63;130.02;;;23.40;50.10;;;;;;4774612;55;20993;-35
2021/12/10 14:24:54;;;;;;;157.35;130.85;;;23.40;50.20;;;;;;4803576;55;21014;-32
2021/12/10 14:30:57;;;;;;;152.60;129.05;;;23.40;50.30;;;;;;4773338;55;21650;-33
2021/12/10 14:36:20;;;;;;;157.30;130.82;;;23.40;50.20;;;;;;4747475;58;21022;-33
2021/12/10 14:41:45;;;;;;;155.60;127.22;;;23.50;50.30;;;;;;4765731;55;21527;-37
2021/12/10 14:47:20;;;;;;;154.25;128.60;;;23.50;50.40;;;;;;4864445;55;21492;-33
2021/12/10 14:52:39;;;;;;;154.55;128.57;;;23.50;50.50;;;;;;4824335;54;21013;-33
2021/12/10 14:58:00;;;;;;;148.62;123.13;;;23.50;50.70;;;;;;4746874;58;21009;-26
2021/12/10 15:03:10;;;;;;;151.32;128.80;;;23.50;50.60;;;;;;4747719;58;20982;-32
2021/12/10 15:08:55;;;;;;;145.38;124.68;;;23.50;50.40;;;;;;4747239;58;21014;-36
2021/12/10 15:14:14;;;;;;;149.90;123.10;;;23.50;50.20;;;;;;4930533;55;21540;-34
2021/12/10 15:19:25;;;;;;;152.10;124.18;;;23.50;50.10;;;;;;4763331;55;21063;-35
2021/12/10 15:24:50;;;;;;;146.40;124.22;;;23.50;50.10;;;;;;4866048;55;21464;-35
2021/12/10 15:31:43;;;;;;;151.07;123.65;;;23.50;50.00;;;;;;4979920;55;21069;-38
2021/12/10 15:36:44;;;;;;;151.10;126.55;;;23.50;49.80;;;;;;4880762;55;20998;-35
2021/12/10 15:41:47;;;;;;;146.15;123.15;;;23.40;49.70;;;;;;4867431;55;21066;-34
2021/12/10 15:46:53;;;;;;;150.65;125.43;;;23.30;49.50;;;;;;4845408;55;21583;-36
2021/12/10 15:51:58;;;;;;;146.25;121.55;;;23.30;49.40;;;;;;4771298;55;21491;-36
2021/12/10 15:57:08;;;;;;;145.57;124.25;;;23.30;49.30;;;;;;4909627;55;21025;-34
2021/12/10 16:02:11;;;;;;;151.27;126.20;;;23.30;49.20;;;;;;4747845;58;21540;-32
2021/12/10 16:07:19;;;;;;;148.43;123.18;;;23.20;49.10;;;;;;4747192;58;21618;-38
2021/12/10 16:12:20;;;;;;;147.62;122.75;;;23.20;49.00;;;;;;4770590;55;20990;-35
2021/12/10 16:17:21;;;;;;;149.93;125.20;;;23.20;49.00;;;;;;4748289;58;21037;-34
2021/12/10 16:22:26;;;;;;;153.02;129.05;;;23.10;48.80;;;;;;4809256;54;20997;-38
2021/12/10 16:27:48;;;;;;;154.87;128.68;;;23.10;48.70;;;;;;4747009;58;21033;-39
2021/12/10 16:32:50;;;;;;;158.27;131.85;;;23.10;48.60;;;;;;4891182;55;21025;-34
2021/12/10 16:37:53;;;;;;;158.87;130.55;;;23.10;48.50;;;;;;4747880;58;21126;-39
2021/12/10 16:42:58;;;;;;;161.65;130.68;;;23.10;48.40;;;;;;4748160;55;21492;-39
2021/12/10 16:48:00;;;;;;;159.55;133.05;;;23.10;48.30;;;;;;5007866;55;21005;-36
2021/12/10 16:53:04;;;;;;;156.93;130.10;;;23.10;48.20;;;;;;4776303;55;21117;-40
2021/12/10 16:58:10;;;;;;;156.52;131.35;;;23.10;48.10;;;;;;4747895;55;21101;-34
2021/12/10 17:03:18;;;;;;;161.95;134.63;;;23.10;48.10;;;;;;4809507;55;21069;-32
2021/12/10 17:08:24;;;;;;;168.25;135.18;;;23.10;48.00;;;;;;5014777;55;21090;-37
2021/12/10 17:13:46;;;;;;;156.75;128.70;;;23.10;47.90;;;;;;4770253;55;20994;-37
2021/12/10 17:18:50;;;;;;;164.32;135.35;;;23.10;47.90;;;;;;4747900;58;21069;-39
2021/12/10 17:23:51;;;;;;;164.10;134.73;;;23.10;47.80;;;;;;4747803;58;21487;-35
2021/12/10 17:29:01;;;;;;;162.43;133.10;;;23.10;47.70;;;;;;4746868;58;21034;-36
2021/12/10 17:34:07;;;;;;;157.55;132.63;;;23.10;47.70;;;;;;4807000;55;21033;-39
2021/12/10 17:39:33;;;;;;;169.57;135.68;;;23.10;47.60;;;;;;4764568;55;21480;-34
2021/12/10 17:44:37;;;;;;;166.35;135.77;;;23.10;47.50;;;;;;4771993;55;20994;-40
2021/12/10 17:49:44;;;;;;;165.90;135.73;;;23.00;47.40;;;;;;4787933;55;20993;-38
2021/12/10 17:54:51;;;;;;;169.27;138.25;;;23.10;47.30;;;;;;4747721;58;21005;-35
2021/12/10 17:59:52;;;;;;;;;;;23.00;47.20;;;;;;4874254;55;21237;-40
2021/12/10 18:04:55;;;;;;;172.45;139.35;;;23.10;47.20;;;;;;4747730;58;20127;-40
2021/12/10 18:09:57;;;;;;;169.52;135.15;;;23.00;47.10;;;;;;4763084;55;21448;-47
2021/12/10 18:15:03;;;;;;;172.48;141.15;;;23.00;47.00;;;;;;4747627;58;21491;-34
2021/12/10 18:20:19;;;;;;;173.20;140.52;;;23.10;47.00;;;;;;5074867;55;21476;-38
2021/12/10 18:25:26;;;;;;;177.50;143.62;;;23.10;47.00;;;;;;4797183;55;20997;-40
2021/12/10 18:30:29;;;;;;;172.60;141.73;;;23.10;47.00;;;;;;4765308;55;21087;-34
2021/12/10 18:35:32;;;;;;;169.15;139.60;;;23.10;46.90;;;;;;4771114;55;21464;-37
2021/12/10 18:40:44;;;;;;;178.68;144.55;;;23.10;46.80;;;;;;4853800;55;21504;-39
2021/12/10 18:45:50;;;;;;;176.52;143.82;;;23.10;46.80;;;;;;4964075;55;20999;-49
2021/12/10 18:51:02;;;;;;;170.23;139.05;;;23.10;46.70;;;;;;4776584;55;21103;-40
2021/12/10 18:56:10;;;;;;;179.05;144.68;;;23.10;46.60;;;;;;4769113;55;21045;-36
2021/12/10 19:01:33;;;;;;;173.70;141.95;;;23.00;46.50;;;;;;4747715;54;21002;-36
2021/12/10 19:06:40;;;;;;;186.35;147.45;;;23.10;46.50;;;;;;4751709;55;21476;-37
2021/12/10 19:11:44;;;;;;;180.52;143.50;;;23.00;46.40;;;;;;5003555;55;21455;-39
2021/12/10 19:16:51;;;;;;;184.05;148.50;;;23.00;46.40;;;;;;4752998;55;21082;-37
2021/12/10 19:22:02;;;;;;;180.87;146.62;;;23.10;46.40;;;;;;4806797;55;21480;-34
2021/12/10 19:27:31;;;;;;;184.43;148.62;;;23.10;46.30;;;;;;4853845;55;21080;-35
2021/12/10 19:32:36;;;;;;;180.43;148.43;;;23.10;46.30;;;;;;4937173;55;21026;-40
2021/12/10 19:37:48;;;;;;;178.77;146.55;;;23.10;46.20;;;;;;4992729;55;20993;-39
2021/12/10 19:43:42;;;;;;;190.00;152.23;;;23.10;46.20;;;;;;4796277;55;21049;-38
2021/12/10 19:49:32;;;;;;;183.45;150.38;;;23.10;46.00;;;;;;4793799;55;21076;-39
2021/12/10 19:54:38;;;;;;;185.48;145.50;;;23.10;46.00;;;;;;4875459;55;21433;-49
2021/12/10 19:59:43;;;;;;;192.82;151.70;;;23.10;45.90;;;;;;4790056;55;21118;-39
2021/12/10 20:05:06;;;;;;;187.52;150.25;;;23.10;45.90;;;;;;4823324;55;20997;-37
2021/12/10 20:11:43;;;;;;;186.20;150.60;;;23.10;45.80;;;;;;4863867;55;21528;-39
2021/12/10 20:16:54;;;;;;;185.30;150.35;;;23.10;45.70;;;;;;4748058;58;20990;-37
2021/12/10 20:22:16;;;;;;;190.20;154.95;;;23.10;45.60;;;;;;4766862;55;21500;-39
2021/12/10 20:27:29;;;;;;;185.68;147.77;;;23.10;45.60;;;;;;4747569;58;21551;-41
2021/12/10 20:32:35;;;;;;;183.95;145.52;;;23.10;45.40;;;;;;4766253;55;21017;-38
2021/12/10 20:37:45;;;;;;;194.93;156.12;;;23.10;45.40;;;;;;4930954;55;21046;-37
2021/12/10 20:42:57;;;;;;;191.85;151.55;;;23.10;45.30;;;;;;4869431;55;21480;-37
2021/12/10 20:48:03;;;;;;;191.27;151.23;;;23.10;45.30;;;;;;4892146;55;21133;-38
2021/12/10 20:53:18;;;;;;;189.68;153.32;;;23.20;45.20;;;;;;4748339;58;21528;-36
2021/12/10 20:58:25;;;;;;;192.77;157.43;;;23.10;45.10;;;;;;4748199;58;21476;-33
2021/12/10 21:04:11;;;;;;;183.87;145.52;;;23.20;45.00;;;;;;4799421;55;21551;-37
2021/12/10 21:09:16;;;;;;;193.13;153.77;;;23.10;44.90;;;;;;4920062;55;21018;-39
2021/12/10 21:14:25;;;;;;;181.77;147.10;;;23.20;44.90;;;;;;4801129;55;21075;-33
2021/12/10 21:19:38;;;;;;;188.35;149.32;;;23.10;44.70;;;;;;4849974;55;21005;-33
2021/12/10 21:24:47;;;;;;;183.52;148.13;;;23.20;44.80;;;;;;4893424;55;21495;-35
2021/12/10 21:29:57;;;;;;;185.82;147.40;;;23.20;44.70;;;;;;4833227;55;21500;-36
2021/12/10 21:35:26;;;;;;;180.77;144.02;;;23.20;44.60;;;;;;4855309;55;21037;-39
2021/12/10 21:40:42;;;;;;;182.85;146.25;;;23.20;44.50;;;;;;4748051;58;21464;-38
2021/12/10 21:45:48;;;;;;;185.50;144.35;;;23.20;44.40;;;;;;4747912;58;21053;-37
2021/12/10 21:50:59;;;;;;;183.60;146.57;;;23.20;44.40;;;;;;4762355;55;21018;-41
2021/12/10 21:56:06;;;;;;;187.12;148.38;;;23.20;44.30;;;;;;4975844;55;21500;-32
2021/12/10 22:01:49;;;;;;;182.77;146.07;;;23.20;44.30;;;;;;4863872;55;21030;-41
2021/12/10 22:06:55;;;;;;;181.52;141.55;;;23.20;44.20;;;;;;4759284;55;21076;-34
2021/12/10 22:12:25;;;;;;;179.60;144.98;;;23.20;44.10;;;;;;5075762;55;21014;-41
2021/12/10 22:17:29;;;;;;;174.95;138.05;;;23.20;44.10;;;;;;4917909;55;21507;-39
2021/12/10 22:22:38;;;;;;;176.37;138.25;;;23.20;44.00;;;;;;4753070;55;21033;-39
2021/12/10 22:27:40;;;;;;;178.73;143.70;;;23.20;43.90;;;;;;4805807;55;21503;-38
2021/12/10 22:32:42;;;;;;;174.82;136.23;;;23.20;44.00;;;;;;4802300;55;20994;-37
2021/12/10 22:37:47;;;;;;;178.32;141.55;;;23.10;43.90;;;;;;4788910;55;20989;-38
2021/12/10 22:42:51;;;;;;;173.50;139.93;;;23.10;43.90;;;;;;5040619;55;21511;-35
2021/12/10 22:48:03;;;;;;;176.05;138.88;;;23.10;44.00;;;;;;4781988;55;21483;-32
2021/12/10 22:53:07;;;;;;;168.98;134.52;;;23.10;44.00;;;;;;4820369;55;21001;-37
2021/12/10 22:58:13;;;;;;;175.10;137.88;;;23.00;43.90;;;;;;4839011;55;20990;-35
2021/12/10 23:03:40;;;;;;;168.75;133.50;;;23.00;43.90;;;;;;4826485;55;21045;-38
2021/12/10 23:09:41;;;;;;;172.07;136.35;;;23.00;43.80;;;;;;4986406;55;21599;-37
2021/12/10 23:14:58;;;;;;;171.55;134.20;;;23.00;43.80;;;;;;4920944;55;21471;-35
2021/12/10 23:20:11;;;;;;;168.10;133.95;;;23.00;43.80;;;;;;5153591;55;21010;-38
2021/12/10 23:25:18;;;;;;;161.37;124.53;;;23.00;43.70;;;;;;4845287;55;21057;-35
2021/12/10 23:30:25;;;;;;;;;;;23.00;43.70;;;;;;4883830;55;21122;-37
2021/12/10 23:36:56;;;;;;;163.35;129.50;;;23.00;43.60;;;;;;4748582;55;20294;-40
2021/12/10 23:42:07;;;;;;;158.12;125.22;;;23.00;43.60;;;;;;4748191;55;21061;-38
2021/12/10 23:47:16;;;;;;;156.32;121.68;;;22.90;43.50;;;;;;4829568;55;21575;-35
2021/12/10 23:52:30;;;;;;;159.20;124.43;;;22.90;43.40;;;;;;4946906;55;21552;-38
2021/12/10 23:57:44;;;;;;;157.32;123.05;;;22.90;43.40;;;;;;4748095;58;21064;-37
